Time;durP1;ratioP1;P1;durP2;ratioP2;P2;SDS_P1;SDS_P2;PMS_P1;PMS_P2;Temp;Humidity;BMP_temperature;BMP_pressure;BME280_temperature;BME280_humidity;BME280_pressure;Samples;Min_cycle;Max_cycle;Signal;HPM_P1;HPM_P2
2023/08/31 00:00:39;;;;;;;;;;;23.00;59.80;;;;;;8494542;28;19907;-50
2023/08/31 00:04:40;;;;;;;;;;;23.00;59.80;;;;;;8494301;28;19907;-50
2023/08/31 00:08:40;;;;;;;;;;;23.00;59.90;;;;;;8494190;28;19918;-49
2023/08/31 00:12:41;;;;;;;;;;;23.10;60.00;;;;;;8494351;28;19912;-49
2023/08/31 00:16:42;;;;;;;;;;;23.00;59.90;;;;;;8494268;28;20279;-49
2023/08/31 00:20:42;;;;;;;;;;;23.00;59.90;;;;;;8493433;27;19954;-51
2023/08/31 00:24:43;;;;;;;;;;;23.00;60.00;;;;;;8460304;28;19918;-48
2023/08/31 00:28:44;;;;;;;;;;;23.10;60.00;;;;;;8458898;28;19911;-50
2023/08/31 00:32:47;;;;;;;;;;;23.00;59.90;;;;;;8459953;28;19923;-48
2023/08/31 00:36:48;;;;;;;;;;;23.00;59.90;;;;;;8460128;28;19919;-50
2023/08/31 00:40:48;;;;;;;;;;;23.10;59.80;;;;;;8459910;28;20002;-49
2023/08/31 00:44:49;;;;;;;;;;;23.00;59.80;;;;;;8459588;28;19965;-49
2023/08/31 00:48:50;;;;;;;;;;;23.00;59.80;;;;;;8459682;28;20554;-51
2023/08/31 00:52:50;;;;;;;;;;;23.00;59.80;;;;;;8459701;28;19911;-49
2023/08/31 00:56:54;;;;;;;;;;;23.00;59.70;;;;;;8459933;28;20143;-50
2023/08/31 01:01:00;;;;;;;;;;;23.00;59.70;;;;;;8459460;28;19912;-48
2023/08/31 01:05:22;;;;;;;;;;;23.00;59.70;;;;;;8459511;28;20404;-48
2023/08/31 01:09:35;;;;;;;;;;;23.00;59.80;;;;;;8462049;28;19915;-48
2023/08/31 01:13:36;;;;;;;;;;;23.00;59.90;;;;;;8465808;28;19977;-50
2023/08/31 01:17:39;;;;;;;;;;;23.00;59.90;;;;;;8502078;27;19964;-49
2023/08/31 01:21:42;;;;;;;;;;;23.00;60.00;;;;;;8499245;27;20009;-49
2023/08/31 01:25:43;;;;;;;;;;;23.00;60.00;;;;;;8499344;27;20352;-48
2023/08/31 01:29:43;;;;;;;;;;;23.00;60.00;;;;;;8498635;27;19911;-48
2023/08/31 01:33:44;;;;;;;;;;;23.00;59.90;;;;;;8510384;27;20327;-49
2023/08/31 01:37:47;;;;;;;;;;;23.00;60.00;;;;;;8498692;27;20260;-49
2023/08/31 01:41:50;;;;;;;;;;;23.00;60.00;;;;;;8498432;27;20368;-50
2023/08/31 01:45:51;;;;;;;;;;;23.00;60.10;;;;;;8498611;27;20387;-50
2023/08/31 01:49:52;;;;;;;;;;;23.00;60.00;;;;;;8498099;27;19915;-51
2023/08/31 01:53:53;;;;;;;;;;;23.00;60.00;;;;;;8498295;27;20383;-48
2023/08/31 01:57:53;;;;;;;;;;;23.00;60.00;;;;;;8498253;27;20265;-50
2023/08/31 02:01:54;;;;;;;;;;;23.00;60.00;;;;;;8497925;27;19938;-48
2023/08/31 02:05:54;;;;;;;;;;;23.00;60.00;;;;;;8513853;27;19915;-48
2023/08/31 02:09:55;;;;;;;;;;;23.00;60.10;;;;;;8497375;27;19919;-48
2023/08/31 02:13:56;;;;;;;;;;;23.00;60.20;;;;;;8497437;27;19918;-50
2023/08/31 02:17:57;;;;;;;;;;;23.00;60.10;;;;;;8497526;27;20021;-48
2023/08/31 02:21:57;;;;;;;;;;;23.00;60.10;;;;;;8496153;27;20399;-51
2023/08/31 02:25:58;;;;;;;;;;;23.00;60.10;;;;;;8497352;27;19911;-50
2023/08/31 02:29:58;;;;;;;;;;;23.00;60.00;;;;;;8496967;27;19926;-49
2023/08/31 02:33:59;;;;;;;;;;;23.00;60.00;;;;;;8496799;27;19912;-50
2023/08/31 02:37:59;;;;;;;;;;;23.00;60.10;;;;;;8497732;27;19912;-49
2023/08/31 02:42:00;;;;;;;;;;;23.00;60.00;;;;;;8496522;27;19911;-51
2023/08/31 02:46:01;;;;;;;;;;;23.00;60.10;;;;;;8496358;27;19911;-49
2023/08/31 02:50:02;;;;;;;;;;;23.00;60.00;;;;;;8496272;27;19915;-48
2023/08/31 02:54:03;;;;;;;;;;;23.00;60.10;;;;;;8496058;27;20226;-47
2023/08/31 02:58:03;;;;;;;;;;;23.00;60.10;;;;;;8496180;27;20332;-50
2023/08/31 03:06:42;;;;;;;;;;;23.00;60.00;;;;;;8495769;27;19907;-48
2023/08/31 03:10:43;;;;;;;;;;;23.00;60.20;;;;;;8495636;27;19916;-48
2023/08/31 03:14:43;;;;;;;;;;;23.00;60.10;;;;;;8496435;27;19912;-49
2023/08/31 03:18:44;;;;;;;;;;;23.00;60.20;;;;;;8495491;27;19949;-50
2023/08/31 03:22:44;;;;;;;;;;;23.00;60.10;;;;;;8495867;27;19968;-49
2023/08/31 03:26:45;;;;;;;;;;;23.00;60.10;;;;;;8477181;27;19922;-49
2023/08/31 03:30:45;;;;;;;;;;;23.00;60.10;;;;;;8494727;27;19911;-50
2023/08/31 03:34:46;;;;;;;;;;;23.00;60.10;;;;;;8495537;27;19911;-51
2023/08/31 03:38:46;;;;;;;;;;;23.00;60.00;;;;;;8494883;27;19911;-48
2023/08/31 03:42:47;;;;;;;;;;;23.00;60.80;;;;;;8510748;27;20276;-50
2023/08/31 03:46:47;;;;;;;;;;;23.00;59.10;;;;;;8494837;27;19955;-50
2023/08/31 03:50:49;;;;;;;;;;;23.00;60.00;;;;;;8494765;27;19912;-50
2023/08/31 03:54:52;;;;;;;;;;;22.90;59.90;;;;;;8494623;27;19998;-48
2023/08/31 03:58:53;;;;;;;;;;;23.00;60.00;;;;;;8494503;27;20280;-49
2023/08/31 04:02:54;;;;;;;;;;;23.00;59.70;;;;;;8494559;28;20022;-50
2023/08/31 04:06:54;;;;;;;;;;;23.00;60.10;;;;;;8494448;28;19908;-51
2023/08/31 04:10:55;;;;;;;;;;;23.00;60.20;;;;;;8494052;28;19919;-51
2023/08/31 04:14:55;;;;;;;;;;;23.00;60.20;;;;;;8494458;28;20388;-49
2023/08/31 04:18:56;;;;;;;;;;;22.90;60.20;;;;;;8494013;28;19946;-48
2023/08/31 04:22:56;;;;;;;;;;;23.00;60.20;;;;;;8494187;28;20051;-51
2023/08/31 04:26:57;;;;;;;;;;;23.00;60.10;;;;;;8494216;27;20257;-49
2023/08/31 04:30:57;;;;;;;;;;;22.90;60.10;;;;;;8493900;28;19923;-49
2023/08/31 04:34:58;;;;;;;;;;;22.90;60.00;;;;;;8494046;28;19918;-49
2023/08/31 04:38:59;;;;;;;;;;;23.00;60.10;;;;;;8493913;28;20357;-49
2023/08/31 04:43:00;;;;;;;;;;;23.00;60.00;;;;;;8494587;27;19915;-50
2023/08/31 04:47:00;;;;;;;;;;;22.90;60.00;;;;;;8500324;27;20412;-50
2023/08/31 04:51:01;;;;;;;;;;;23.00;60.10;;;;;;8500208;27;20279;-49
2023/08/31 04:55:03;;;;;;;;;;;22.90;60.00;;;;;;8500151;27;19919;-49
2023/08/31 04:59:04;;;;;;;;;;;22.90;59.90;;;;;;8499893;27;20437;-48
2023/08/31 05:03:04;;;;;;;;;;;22.90;60.00;;;;;;8499960;27;20594;-48
2023/08/31 05:07:05;;;;;;;;;;;23.00;60.10;;;;;;8500063;27;20414;-47
2023/08/31 05:11:05;;;;;;;;;;;22.90;60.10;;;;;;8499532;27;19916;-50
2023/08/31 05:15:06;;;;;;;;;;;22.90;59.90;;;;;;8499521;27;20288;-49
2023/08/31 05:19:07;;;;;;;;;;;22.90;60.20;;;;;;8499158;27;19946;-49
2023/08/31 05:23:08;;;;;;;;;;;22.90;60.20;;;;;;8499404;27;19918;-48
2023/08/31 05:27:08;;;;;;;;;;;22.90;60.10;;;;;;8499790;27;19953;-48
2023/08/31 05:31:09;;;;;;;;;;;22.90;60.20;;;;;;8498782;27;20460;-49
2023/08/31 05:35:09;;;;;;;;;;;22.90;60.10;;;;;;8498995;27;19912;-49
2023/08/31 05:39:10;;;;;;;;;;;22.90;60.00;;;;;;8498633;27;20368;-50
2023/08/31 05:43:10;;;;;;;;;;;22.90;59.80;;;;;;8498346;27;19965;-49
2023/08/31 05:47:11;;;;;;;;;;;22.90;59.90;;;;;;8498702;27;19918;-48
2023/08/31 05:51:11;;;;;;;;;;;22.90;60.00;;;;;;8498280;27;19923;-49
2023/08/31 05:55:12;;;;;;;;;;;22.90;59.80;;;;;;8497558;27;20376;-48
2023/08/31 05:59:12;;;;;;;;;;;22.90;59.90;;;;;;8498099;27;20336;-51
2023/08/31 06:03:13;;;;;;;;;;;22.90;59.80;;;;;;8497962;27;19918;-51
2023/08/31 06:07:13;;;;;;;;;;;23.00;59.90;;;;;;8497985;27;19927;-48
2023/08/31 06:11:14;;;;;;;;;;;22.90;60.00;;;;;;8513565;27;19915;-50
2023/08/31 06:15:15;;;;;;;;;;;22.90;59.80;;;;;;8497474;27;20466;-50
2023/08/31 06:19:15;;;;;;;;;;;22.90;59.80;;;;;;8497357;27;19991;-49
2023/08/31 06:23:16;;;;;;;;;;;22.90;59.80;;;;;;8497329;27;19919;-50
2023/08/31 06:27:17;;;;;;;;;;;22.90;59.70;;;;;;8478973;27;20269;-51
2023/08/31 06:31:19;;;;;;;;;;;23.00;59.70;;;;;;8496958;27;19968;-50
2023/08/31 06:35:19;;;;;;;;;;;22.90;59.60;;;;;;8497306;27;19912;-51
2023/08/31 06:39:20;;;;;;;;;;;22.90;59.60;;;;;;8496493;27;19911;-49
2023/08/31 06:43:20;;;;;;;;;;;22.90;59.60;;;;;;8497015;27;20345;-49
2023/08/31 06:47:21;;;;;;;;;;;22.90;59.40;;;;;;8496455;27;20448;-49
2023/08/31 06:51:22;;;;;;;;;;;22.90;59.50;;;;;;8496888;27;19915;-49
2023/08/31 06:55:23;;;;;;;;;;;22.90;59.40;;;;;;8496415;27;19960;-49
2023/08/31 06:59:24;;;;;;;;;;;23.00;59.30;;;;;;8496484;27;19920;-48
2023/08/31 07:03:25;;;;;;;;;;;23.00;59.40;;;;;;8496276;27;20686;-49
2023/08/31 07:07:25;;;;;;;;;;;22.90;59.30;;;;;;8495456;27;19916;-48
2023/08/31 07:11:27;;;;;;;;;;;22.90;59.40;;;;;;8495464;27;19922;-51
2023/08/31 07:15:28;;;;;;;;;;;22.90;59.30;;;;;;8495829;27;19959;-49
2023/08/31 07:19:28;;;;;;;;;;;22.90;59.30;;;;;;8459974;28;19924;-50
2023/08/31 07:23:29;;;;;;;;;;;23.00;59.20;;;;;;8461277;28;19924;-50
2023/08/31 07:27:29;;;;;;;;;;;22.90;59.30;;;;;;8485408;27;20014;-48
2023/08/31 07:31:31;;;;;;;;;;;23.00;59.20;;;;;;8460891;28;20294;-50
2023/08/31 07:35:31;;;;;;;;;;;23.00;59.30;;;;;;8461205;28;19908;-51
2023/08/31 07:39:32;;;;;;;;;;;23.00;59.10;;;;;;8460988;28;19924;-49
2023/08/31 07:43:32;;;;;;;;;;;23.00;59.10;;;;;;8460781;28;20338;-48
2023/08/31 07:47:33;;;;;;;;;;;22.90;59.20;;;;;;8460968;28;19912;-50
2023/08/31 07:51:33;;;;;;;;;;;22.90;59.30;;;;;;8459385;28;20416;-49
2023/08/31 07:55:35;;;;;;;;;;;22.90;59.30;;;;;;8460987;28;19961;-49
2023/08/31 07:59:39;;;;;;;;;;;23.00;59.30;;;;;;8460858;28;19916;-48
2023/08/31 08:03:39;;;;;;;;;;;23.00;59.40;;;;;;8459332;28;19920;-50
2023/08/31 08:07:43;;;;;;;;;;;22.90;59.10;;;;;;8460678;28;19918;-51
2023/08/31 08:11:43;;;;;;;;;;;22.90;59.20;;;;;;8459038;28;20368;-49
2023/08/31 08:15:45;;;;;;;;;;;22.90;59.30;;;;;;8493601;27;19912;-50
2023/08/31 08:19:45;;;;;;;;;;;22.90;59.30;;;;;;8483833;27;19974;-49
2023/08/31 08:23:46;;;;;;;;;;;22.90;59.10;;;;;;8482868;27;19918;-48
2023/08/31 08:27:47;;;;;;;;;;;22.90;59.20;;;;;;8502243;27;20406;-48
2023/08/31 08:31:48;;;;;;;;;;;22.90;59.20;;;;;;8500865;27;19912;-48
2023/08/31 08:35:48;;;;;;;;;;;22.90;59.10;;;;;;8500885;27;20006;-51
2023/08/31 08:39:49;;;;;;;;;;;22.90;59.10;;;;;;8500553;27;19912;-51
2023/08/31 08:43:51;;;;;;;;;;;23.00;59.10;;;;;;8500453;27;20360;-49
2023/08/31 08:47:52;;;;;;;;;;;23.00;59.20;;;;;;8500740;27;19942;-49
2023/08/31 08:51:53;;;;;;;;;;;23.00;59.00;;;;;;8500080;27;20075;-48
2023/08/31 08:55:53;;;;;;;;;;;22.90;59.00;;;;;;8500236;27;19934;-50
2023/08/31 08:59:54;;;;;;;;;;;22.90;59.00;;;;;;8481748;27;19912;-49
2023/08/31 09:03:55;;;;;;;;;;;22.90;59.10;;;;;;8481524;27;19959;-50
2023/08/31 09:08:02;;;;;;;;;;;22.90;59.30;;;;;;8499588;27;19972;-48
2023/08/31 09:12:08;;;;;;;;;;;22.90;59.20;;;;;;8499438;27;20368;-49
2023/08/31 09:16:23;;;;;;;;;;;22.90;59.20;;;;;;8499266;27;19915;-50
2023/08/31 09:20:23;;;;;;;;;;;22.90;59.10;;;;;;8499393;27;20014;-49
2023/08/31 09:25:29;;;;;;;;;;;22.90;58.90;;;;;;8499335;27;19912;-50
2023/08/31 09:29:06;;;;;;;;;;;22.90;58.90;;;;;;8471940;27;20014;-48
2023/08/31 09:33:08;;;;;;;;;;;22.90;58.90;;;;;;8480523;27;19911;-49
2023/08/31 09:37:09;;;;;;;;;;;22.90;59.10;;;;;;8498681;27;20392;-49
2023/08/31 09:41:09;;;;;;;;;;;22.90;58.60;;;;;;8480141;27;20425;-48
2023/08/31 09:45:29;;;;;;;;;;;22.90;59.00;;;;;;8498474;27;19925;-48
2023/08/31 09:49:30;;;;;;;;;;;23.00;58.80;;;;;;8498390;27;20257;-49
2023/08/31 09:53:31;;;;;;;;;;;23.00;58.80;;;;;;8498077;27;19990;-51
2023/08/31 09:57:32;;;;;;;;;;;23.00;58.60;;;;;;8498139;27;19938;-49
2023/08/31 10:01:32;;;;;;;;;;;23.00;58.90;;;;;;8498175;27;19908;-49
2023/08/31 10:05:33;;;;;;;;;;;22.90;58.60;;;;;;8497702;27;20381;-48
2023/08/31 10:09:35;;;;;;;;;;;22.90;58.80;;;;;;8497625;27;19915;-51
2023/08/31 10:13:37;;;;;;;;;;;23.00;59.00;;;;;;8497603;27;19912;-50
2023/08/31 10:17:39;;;;;;;;;;;23.00;58.90;;;;;;8497289;27;19907;-50
2023/08/31 10:21:40;;;;;;;;;;;23.00;58.90;;;;;;8499693;27;19912;-49
2023/08/31 10:25:50;;;;;;;;;;;23.00;58.90;;;;;;8500321;27;19918;-50
2023/08/31 10:29:50;;;;;;;;;;;23.00;59.00;;;;;;8499339;27;20368;-49
2023/08/31 10:33:55;;;;;;;;;;;23.00;58.80;;;;;;8498502;27;20451;-47
2023/08/31 10:38:15;;;;;;;;;;;23.00;58.80;;;;;;8499070;27;19911;-49
2023/08/31 10:42:15;;;;;;;;;;;23.00;58.80;;;;;;8497884;27;19947;-49
2023/08/31 10:46:24;;;;;;;;;;;23.00;58.80;;;;;;8497887;27;19964;-51
2023/08/31 10:50:24;;;;;;;;;;;23.00;59.30;;;;;;8498023;27;20342;-48
2023/08/31 10:54:26;;;;;;;;;;;23.00;58.80;;;;;;8497529;27;19920;-50
2023/08/31 10:58:31;;;;;;;;;;;23.00;59.30;;;;;;8498958;27;19915;-50
2023/08/31 11:02:41;;;;;;;;;;;23.00;58.80;;;;;;8497760;27;19953;-51
2023/08/31 11:06:41;;;;;;;;;;;23.00;58.70;;;;;;8498410;27;19915;-50
2023/08/31 11:10:45;;;;;;;;;;;23.00;59.00;;;;;;8498245;27;19915;-50
2023/08/31 11:14:47;;;;;;;;;;;23.00;58.90;;;;;;8479071;27;20061;-49
2023/08/31 11:18:48;;;;;;;;;;;23.00;58.90;;;;;;8479217;27;19922;-49
2023/08/31 11:22:49;;;;;;;;;;;22.90;59.00;;;;;;8496651;27;19911;-51
2023/08/31 11:26:50;;;;;;;;;;;23.00;58.90;;;;;;8497822;27;20353;-50
2023/08/31 11:30:51;;;;;;;;;;;22.90;58.90;;;;;;8496392;27;20333;-48
2023/08/31 11:34:51;;;;;;;;;;;22.90;58.90;;;;;;8497649;27;19908;-51
2023/08/31 11:38:52;;;;;;;;;;;23.00;59.00;;;;;;8497197;27;20280;-49
2023/08/31 11:42:53;;;;;;;;;;;22.90;58.90;;;;;;8497274;27;19919;-50
2023/08/31 11:46:53;;;;;;;;;;;22.90;58.70;;;;;;8496037;27;19915;-49
2023/08/31 11:50:54;;;;;;;;;;;22.90;58.70;;;;;;8497056;27;20353;-48
2023/08/31 11:54:55;;;;;;;;;;;22.90;58.70;;;;;;8497030;27;20311;-51
2023/08/31 11:58:55;;;;;;;;;;;23.00;58.70;;;;;;8496368;28;19922;-48
2023/08/31 12:03:00;;;;;;;;;;;23.00;58.70;;;;;;8497244;28;19916;-50
2023/08/31 12:07:07;;;;;;;;;;;22.90;58.60;;;;;;8495697;28;19922;-49
2023/08/31 12:11:07;;;;;;;;;;;22.90;58.80;;;;;;8496726;28;19915;-49
2023/08/31 12:15:08;;;;;;;;;;;23.00;58.70;;;;;;8495528;28;19999;-49
2023/08/31 12:19:09;;;;;;;;;;;23.00;58.70;;;;;;8496849;28;20470;-51
2023/08/31 12:23:09;;;;;;;;;;;22.90;58.70;;;;;;8495464;28;19918;-50
2023/08/31 12:27:10;;;;;;;;;;;22.90;58.70;;;;;;8496761;27;19912;-50
2023/08/31 12:31:11;;;;;;;;;;;23.00;58.70;;;;;;8495781;28;19966;-49
2023/08/31 12:35:14;;;;;;;;;;;23.00;58.70;;;;;;8495844;28;19980;-51
2023/08/31 12:39:14;;;;;;;;;;;23.00;59.20;;;;;;8496237;28;19899;-51
2023/08/31 12:43:16;;;;;;;;;;;23.00;58.60;;;;;;8495219;28;20441;-50
2023/08/31 12:47:16;;;;;;;;;;;23.00;58.60;;;;;;8496005;28;19915;-49
2023/08/31 12:51:17;;;;;;;;;;;22.90;58.60;;;;;;8495129;28;19922;-50
2023/08/31 12:55:21;;;;;;;;;;;23.00;58.60;;;;;;8496539;27;20352;-50
2023/08/31 12:59:21;;;;;;;;;;;22.90;58.60;;;;;;8510344;27;19912;-49
2023/08/31 13:03:22;;;;;;;;;;;23.00;58.60;;;;;;8496004;27;19932;-49
2023/08/31 13:07:23;;;;;;;;;;;23.00;58.50;;;;;;8501063;27;20276;-48
2023/08/31 13:11:23;;;;;;;;;;;23.00;58.80;;;;;;8501821;27;19921;-51
2023/08/31 13:15:24;;;;;;;;;;;23.00;58.80;;;;;;8502306;27;19918;-50
2023/08/31 13:19:24;;;;;;;;;;;22.90;58.70;;;;;;8482638;27;19951;-50
2023/08/31 13:23:25;;;;;;;;;;;23.00;58.80;;;;;;8501730;27;19994;-50
2023/08/31 13:27:25;;;;;;;;;;;22.90;58.70;;;;;;8500786;27;19915;-48
2023/08/31 13:31:28;;;;;;;;;;;22.90;58.60;;;;;;8500722;27;21636;-49
2023/08/31 13:35:29;;;;;;;;;;;22.90;58.50;;;;;;8515994;27;19972;-51
2023/08/31 13:39:29;;;;;;;;;;;22.90;58.60;;;;;;8501182;27;20014;-50
2023/08/31 13:43:30;;;;;;;;;;;23.00;59.10;;;;;;8500077;27;19911;-50
2023/08/31 13:47:31;;;;;;;;;;;23.00;58.50;;;;;;8500822;27;19915;-50
2023/08/31 13:51:31;;;;;;;;;;;23.00;58.50;;;;;;8499909;27;19916;-50
2023/08/31 13:55:34;;;;;;;;;;;23.00;58.50;;;;;;8500723;27;19907;-49
2023/08/31 13:59:35;;;;;;;;;;;23.00;58.50;;;;;;8500196;27;20052;-48
2023/08/31 14:03:35;;;;;;;;;;;23.00;58.50;;;;;;8500372;27;20026;-48
2023/08/31 14:07:36;;;;;;;;;;;22.90;58.60;;;;;;8500758;27;19992;-48
2023/08/31 14:11:37;;;;;;;;;;;23.00;58.60;;;;;;8499119;27;19912;-50
2023/08/31 14:15:44;;;;;;;;;;;22.90;58.50;;;;;;8499647;27;19915;-50
2023/08/31 14:19:44;;;;;;;;;;;22.90;58.50;;;;;;8498927;27;19926;-48
2023/08/31 14:23:45;;;;;;;;;;;23.00;58.60;;;;;;8500501;27;19912;-49
2023/08/31 14:27:46;;;;;;;;;;;23.00;58.60;;;;;;8498850;27;19950;-49
2023/08/31 14:32:01;;;;;;;;;;;22.90;58.60;;;;;;8499852;27;20387;-49
2023/08/31 14:36:02;;;;;;;;;;;22.90;58.70;;;;;;8499792;27;19918;-50
2023/08/31 14:40:06;;;;;;;;;;;22.90;58.60;;;;;;8513723;27;20048;-49
2023/08/31 14:44:07;;;;;;;;;;;22.90;58.60;;;;;;8480606;27;19915;-48
2023/08/31 14:48:11;;;;;;;;;;;22.90;58.50;;;;;;8497572;27;19918;-50
2023/08/31 14:52:11;;;;;;;;;;;22.90;58.40;;;;;;8498542;27;19915;-51
2023/08/31 14:56:12;;;;;;;;;;;22.90;58.50;;;;;;8498519;27;19911;-50
2023/08/31 15:00:13;;;;;;;;;;;23.00;58.40;;;;;;8498269;27;19915;-50
2023/08/31 15:04:13;;;;;;;;;;;22.90;58.90;;;;;;8497164;27;20412;-50
2023/08/31 15:08:14;;;;;;;;;;;22.90;58.40;;;;;;8497084;27;19968;-50
2023/08/31 15:12:14;;;;;;;;;;;23.00;58.50;;;;;;8497363;27;19937;-50
2023/08/31 15:16:15;;;;;;;;;;;22.90;58.40;;;;;;8498126;27;20614;-48
2023/08/31 15:20:16;;;;;;;;;;;23.00;58.50;;;;;;8497921;27;19923;-49
2023/08/31 15:24:16;;;;;;;;;;;22.90;58.30;;;;;;8497138;27;19915;-49
2023/08/31 15:28:17;;;;;;;;;;;23.00;58.50;;;;;;8497716;27;19912;-50
2023/08/31 15:32:17;;;;;;;;;;;23.00;58.40;;;;;;8496557;27;19920;-50
2023/08/31 15:36:18;;;;;;;;;;;23.00;58.50;;;;;;8496855;27;19911;-48
2023/08/31 15:40:18;;;;;;;;;;;23.00;58.50;;;;;;8495725;27;20352;-49
2023/08/31 15:44:19;;;;;;;;;;;22.90;58.60;;;;;;8496122;27;19911;-50
2023/08/31 15:48:19;;;;;;;;;;;22.90;58.60;;;;;;8495876;27;19917;-50
2023/08/31 15:52:20;;;;;;;;;;;22.90;58.50;;;;;;8497294;27;19958;-50
2023/08/31 15:56:20;;;;;;;;;;;22.90;58.50;;;;;;8497288;27;19912;-48
2023/08/31 16:00:22;;;;;;;;;;;22.90;58.50;;;;;;8496969;27;19912;-50
2023/08/31 16:04:23;;;;;;;;;;;23.00;58.50;;;;;;8497406;27;19918;-49
2023/08/31 16:08:23;;;;;;;;;;;22.90;58.40;;;;;;8495616;28;19912;-50
2023/08/31 16:12:24;;;;;;;;;;;23.00;58.50;;;;;;8496736;28;20037;-48
2023/08/31 16:16:25;;;;;;;;;;;23.00;59.00;;;;;;8495405;28;19958;-48
2023/08/31 16:20:25;;;;;;;;;;;22.90;58.40;;;;;;8496374;28;20626;-49
2023/08/31 16:24:26;;;;;;;;;;;22.90;58.30;;;;;;8496058;27;19919;-49
2023/08/31 16:28:26;;;;;;;;;;;23.00;58.50;;;;;;8496585;28;19922;-51
2023/08/31 16:32:27;;;;;;;;;;;22.90;58.40;;;;;;8495312;28;19920;-48
2023/08/31 16:36:27;;;;;;;;;;;23.00;58.40;;;;;;8497050;28;20609;-49
2023/08/31 16:40:28;;;;;;;;;;;22.90;58.30;;;;;;8498867;27;19915;-51
2023/08/31 16:44:28;;;;;;;;;;;23.00;58.40;;;;;;8502342;27;20400;-50
2023/08/31 16:48:29;;;;;;;;;;;23.00;58.30;;;;;;8503158;27;19918;-51
2023/08/31 16:52:30;;;;;;;;;;;23.00;58.40;;;;;;8501461;27;19964;-50
2023/08/31 16:56:30;;;;;;;;;;;22.90;58.40;;;;;;8503011;27;20357;-50
2023/08/31 17:00:31;;;;;;;;;;;23.00;58.40;;;;;;8501312;27;20339;-51
2023/08/31 17:04:33;;;;;;;;;;;22.90;58.40;;;;;;8502438;27;19912;-50
2023/08/31 17:08:33;;;;;;;;;;;22.90;58.50;;;;;;8501771;27;19918;-50
2023/08/31 17:12:34;;;;;;;;;;;22.90;58.50;;;;;;8536364;27;19915;-50
2023/08/31 17:16:35;;;;;;;;;;;22.90;58.40;;;;;;8535527;27;19918;-49
2023/08/31 17:20:35;;;;;;;;;;;23.00;58.30;;;;;;8535662;27;19919;-49
2023/08/31 17:24:36;;;;;;;;;;;22.90;58.30;;;;;;8534667;27;20307;-51
2023/08/31 17:28:36;;;;;;;;;;;22.90;58.30;;;;;;8501060;27;20226;-51
2023/08/31 17:32:37;;;;;;;;;;;23.00;58.30;;;;;;8501543;27;20362;-50
2023/08/31 17:36:37;;;;;;;;;;;22.90;58.30;;;;;;8499978;27;19907;-49
2023/08/31 17:40:38;;;;;;;;;;;23.00;58.40;;;;;;8501195;27;19912;-50
2023/08/31 17:44:38;;;;;;;;;;;23.00;58.40;;;;;;8499877;27;19964;-49
2023/08/31 17:48:39;;;;;;;;;;;22.90;58.20;;;;;;8500959;27;19912;-50
2023/08/31 17:52:40;;;;;;;;;;;22.90;58.30;;;;;;8499442;27;19922;-49
2023/08/31 17:56:41;;;;;;;;;;;22.90;58.40;;;;;;8501072;27;19907;-51
2023/08/31 18:00:43;;;;;;;;;;;22.90;58.40;;;;;;8499798;27;19912;-51
2023/08/31 18:04:43;;;;;;;;;;;22.90;58.40;;;;;;8500036;27;19918;-51
2023/08/31 18:08:46;;;;;;;;;;;22.90;58.50;;;;;;8500197;27;19911;-49
2023/08/31 18:12:46;;;;;;;;;;;22.90;58.50;;;;;;8499295;27;19966;-49
2023/08/31 18:16:47;;;;;;;;;;;22.90;58.50;;;;;;8500545;27;19911;-50
2023/08/31 18:20:47;;;;;;;;;;;22.90;58.60;;;;;;8498677;27;19925;-50
2023/08/31 18:24:48;;;;;;;;;;;22.90;58.50;;;;;;8500224;27;19911;-48
2023/08/31 18:28:49;;;;;;;;;;;22.90;58.40;;;;;;8498549;27;19918;-49
2023/08/31 18:32:49;;;;;;;;;;;23.00;58.50;;;;;;8499518;27;19915;-51
2023/08/31 18:36:50;;;;;;;;;;;22.90;58.50;;;;;;8497942;27;19998;-50
2023/08/31 18:40:51;;;;;;;;;;;22.90;58.30;;;;;;8499362;27;19918;-51
2023/08/31 18:44:53;;;;;;;;;;;22.90;58.30;;;;;;8498409;27;20010;-48
2023/08/31 18:48:54;;;;;;;;;;;22.90;58.30;;;;;;8498282;27;19916;-51
2023/08/31 18:52:54;;;;;;;;;;;22.90;58.40;;;;;;8480354;27;19941;-48
2023/08/31 18:56:55;;;;;;;;;;;22.90;58.30;;;;;;8497901;27;19912;-50
2023/08/31 19:00:59;;;;;;;;;;;22.90;58.30;;;;;;8498293;27;19911;-50
2023/08/31 19:04:59;;;;;;;;;;;22.90;58.30;;;;;;8496783;27;19914;-50
2023/08/31 19:09:00;;;;;;;;;;;22.90;58.20;;;;;;8498511;27;19912;-51
2023/08/31 19:13:06;;;;;;;;;;;22.90;58.40;;;;;;8496949;27;19916;-48
2023/08/31 19:17:07;;;;;;;;;;;22.90;58.40;;;;;;8498642;27;19921;-50
2023/08/31 19:21:07;;;;;;;;;;;22.90;58.30;;;;;;8497068;27;19919;-51
2023/08/31 19:25:08;;;;;;;;;;;22.90;58.80;;;;;;8497832;27;19907;-51
2023/08/31 19:29:09;;;;;;;;;;;22.90;58.30;;;;;;8497324;27;19911;-50
2023/08/31 19:33:09;;;;;;;;;;;22.90;58.30;;;;;;8496830;27;19988;-49
2023/08/31 19:37:10;;;;;;;;;;;22.90;58.30;;;;;;8497723;27;19912;-52
2023/08/31 19:41:12;;;;;;;;;;;22.90;58.20;;;;;;8496193;27;19908;-51
2023/08/31 19:45:13;;;;;;;;;;;22.90;58.20;;;;;;8497281;27;19946;-49
2023/08/31 19:49:14;;;;;;;;;;;22.90;58.20;;;;;;8495872;27;19919;-48
2023/08/31 19:53:14;;;;;;;;;;;22.90;58.40;;;;;;8497977;27;19912;-49
2023/08/31 19:57:15;;;;;;;;;;;22.90;58.20;;;;;;8495877;27;19911;-50
2023/08/31 20:01:15;;;;;;;;;;;22.90;58.40;;;;;;8496103;27;20366;-48
2023/08/31 20:05:20;;;;;;;;;;;22.90;58.40;;;;;;8496832;27;20399;-48
2023/08/31 20:09:21;;;;;;;;;;;22.90;58.50;;;;;;8496356;28;19918;-49
2023/08/31 20:13:21;;;;;;;;;;;22.90;58.30;;;;;;8507145;27;19911;-50
2023/08/31 20:17:22;;;;;;;;;;;22.90;58.90;;;;;;8537746;27;19917;-50
2023/08/31 20:21:22;;;;;;;;;;;22.90;58.40;;;;;;8537604;27;20276;-50
2023/08/31 20:25:23;;;;;;;;;;;23.00;58.90;;;;;;8529250;27;19957;-50
2023/08/31 20:29:25;;;;;;;;;;;23.00;57.90;;;;;;8512544;27;19907;-49
2023/08/31 20:33:25;;;;;;;;;;;23.10;58.50;;;;;;8531412;27;19971;-48
2023/08/31 20:37:26;;;;;;;;;;;23.10;58.20;;;;;;8531431;27;19919;-50
2023/08/31 20:41:28;;;;;;;;;;;23.10;57.80;;;;;;8520605;27;19922;-50
2023/08/31 20:45:29;;;;;;;;;;;23.10;58.30;;;;;;8531247;27;19941;-51
2023/08/31 20:49:30;;;;;;;;;;;23.10;57.80;;;;;;8530912;27;19963;-50
2023/08/31 20:53:34;;;;;;;;;;;23.20;58.30;;;;;;8530969;27;19911;-50
2023/08/31 20:57:35;;;;;;;;;;;23.20;58.60;;;;;;8530492;27;19920;-47
2023/08/31 21:01:35;;;;;;;;;;;23.20;58.40;;;;;;8519706;27;19960;-48
2023/08/31 21:05:36;;;;;;;;;;;23.30;58.60;;;;;;8519618;27;19930;-50
2023/08/31 21:09:36;;;;;;;;;;;23.30;58.70;;;;;;8530264;27;19927;-49
2023/08/31 21:13:37;;;;;;;;;;;23.30;58.30;;;;;;8530951;27;20002;-51
2023/08/31 21:17:37;;;;;;;;;;;23.30;58.40;;;;;;8517922;27;20371;-51
2023/08/31 21:21:38;;;;;;;;;;;23.30;57.60;;;;;;8513086;27;19919;-50
2023/08/31 21:25:42;;;;;;;;;;;23.30;57.60;;;;;;8512398;27;20010;-48
2023/08/31 21:29:42;;;;;;;;;;;23.40;58.00;;;;;;8511972;27;19927;-51
2023/08/31 21:33:43;;;;;;;;;;;23.30;57.70;;;;;;8512556;27;19947;-49
2023/08/31 21:37:43;;;;;;;;;;;23.40;57.80;;;;;;8493827;27;20300;-48
2023/08/31 21:41:44;;;;;;;;;;;23.40;57.40;;;;;;8512853;27;19918;-51
2023/08/31 21:45:45;;;;;;;;;;;23.40;57.00;;;;;;8512166;27;19911;-49
2023/08/31 21:49:45;;;;;;;;;;;23.40;57.70;;;;;;8511683;27;19930;-48
2023/08/31 21:53:46;;;;;;;;;;;23.40;58.10;;;;;;8512266;27;19920;-50
2023/08/31 21:57:46;;;;;;;;;;;23.40;57.80;;;;;;8511284;27;19926;-47
2023/08/31 22:01:47;;;;;;;;;;;23.40;57.70;;;;;;8494032;27;20003;-48
2023/08/31 22:05:47;;;;;;;;;;;23.40;58.20;;;;;;8511846;27;19915;-49
2023/08/31 22:09:49;;;;;;;;;;;23.40;58.20;;;;;;8513717;27;19923;-53
2023/08/31 22:13:50;;;;;;;;;;;23.40;58.50;;;;;;8511880;27;20634;-53
2023/08/31 22:17:54;;;;;;;;;;;23.40;58.50;;;;;;8513771;27;20404;-52
2023/08/31 22:21:56;;;;;;;;;;;23.40;58.80;;;;;;8545211;27;20368;-52
2023/08/31 22:25:57;;;;;;;;;;;23.40;56.90;;;;;;8545754;27;19911;-51
2023/08/31 22:29:58;;;;;;;;;;;23.40;57.90;;;;;;8544439;27;19927;-49
2023/08/31 22:33:58;;;;;;;;;;;23.50;58.30;;;;;;8544673;27;19925;-52
2023/08/31 22:37:59;;;;;;;;;;;23.40;56.80;;;;;;8544121;27;19942;-51
2023/08/31 22:41:59;;;;;;;;;;;23.40;57.60;;;;;;8544643;27;19926;-52
2023/08/31 22:46:00;;;;;;;;;;;23.50;57.70;;;;;;8544687;27;20439;-53
2023/08/31 22:50:01;;;;;;;;;;;23.40;57.50;;;;;;8543823;27;19923;-50
2023/08/31 22:54:02;;;;;;;;;;;23.50;57.70;;;;;;8542040;27;19918;-48
2023/08/31 22:58:03;;;;;;;;;;;23.50;57.80;;;;;;8515921;27;19971;-50
2023/08/31 23:02:03;;;;;;;;;;;23.40;58.30;;;;;;8528373;27;19907;-50
2023/08/31 23:06:04;;;;;;;;;;;23.40;58.60;;;;;;8528340;27;20328;-51
2023/08/31 23:10:05;;;;;;;;;;;23.30;58.40;;;;;;8529418;27;19922;-51
2023/08/31 23:14:06;;;;;;;;;;;23.30;58.30;;;;;;8511557;27;19911;-51
2023/08/31 23:18:06;;;;;;;;;;;23.30;58.40;;;;;;8529893;27;19923;-50
2023/08/31 23:22:07;;;;;;;;;;;23.30;58.30;;;;;;8529877;27;19922;-52
2023/08/31 23:26:07;;;;;;;;;;;23.20;58.50;;;;;;8500364;27;20424;-48